createdAt,value
2024-01-15T00:00:45.589Z,61005.47
2024-01-15T00:03:17.623Z,61018.28
2024-01-15T00:06:10.319Z,61022.47
2024-01-15T00:09:01.982Z,61015.53
2024-01-15T00:11:52.221Z,60987.59
2024-01-15T00:14:52.193Z,61015.53
2024-01-15T00:17:44.513Z,60982.34
2024-01-15T00:20:43.368Z,61007.06
2024-01-15T00:23:36.257Z,60989.47
2024-01-15T00:26:22.651Z,60988.94
2024-01-15T00:29:13.348Z,60970.78
2024-01-15T00:31:47.311Z,60946.53
2024-01-15T00:34:36.713Z,60933.28
2024-01-15T00:37:26.848Z,60914.53
2024-01-15T00:40:11.014Z,60945.63
2024-01-15T00:42:58.502Z,60947.31
2024-01-15T00:45:51.521Z,60960.13
2024-01-15T00:48:43.318Z,60960.03
2024-01-15T00:51:36.299Z,60942.50
2024-01-15T00:54:28.198Z,60902.25
2024-01-15T00:57:19.230Z,60874.13
2024-01-15T01:00:09.863Z,60892.94
2024-01-15T01:02:55.968Z,60871.44
2024-01-15T01:05:56.402Z,60945.19
2024-01-15T01:08:52.435Z,60979.88
2024-01-15T01:11:52.442Z,60997.47
2024-01-15T01:14:36.130Z,60995.78
2024-01-15T01:17:18.561Z,60989.19
2024-01-15T01:20:15.449Z,61018.03
2024-01-15T01:23:11.167Z,61019.91
2024-01-15T01:26:04.792Z,61001.13
2024-01-15T01:28:58.173Z,61035.28
2024-01-15T01:31:39.739Z,61014.34
2024-01-15T01:34:16.152Z,61038.56
2024-01-15T01:37:10.059Z,61048.72
2024-01-15T01:40:01.933Z,61027.06
2024-01-15T01:42:49.799Z,61059.41
2024-01-15T01:45:52.686Z,61066.34
2024-01-15T01:48:42.694Z,61064.03
2024-01-15T01:51:13.826Z,61069.53
2024-01-15T01:53:44.323Z,61047.38
2024-01-15T01:56:33.084Z,61051.19
2024-01-15T01:59:03.342Z,61059.66
2024-01-15T02:01:36.352Z,61088.22
2024-01-15T02:04:08.409Z,61076.22
2024-01-15T02:06:43.337Z,61080.03
2024-01-15T02:09:36.038Z,61108.44
2024-01-15T02:12:30.253Z,61106.94
2024-01-15T02:15:23.116Z,61107.28
2024-01-15T02:18:30.454Z,61079.41
2024-01-15T02:21:22.252Z,61078.44
2024-01-15T02:24:14.998Z,61107.47
2024-01-15T02:27:13.449Z,61112.81
2024-01-15T02:29:52.470Z,61090.72
2024-01-15T02:32:45.626Z,61089.00
2024-01-15T02:35:28.825Z,61096.50
2024-01-15T02:38:14.858Z,61120.84
2024-01-15T02:41:06.280Z,61126.63
2024-01-15T02:44:00.454Z,61125.63
2024-01-15T02:47:06.317Z,61125.09
2024-01-15T02:50:05.248Z,61105.56
2024-01-15T02:53:06.324Z,61134.09
2024-01-15T02:56:00.635Z,61132.59
2024-01-15T02:59:02.841Z,61116.81
2024-01-15T03:01:52.979Z,61114.22
2024-01-15T03:04:48.665Z,61113.13
2024-01-15T03:07:39.813Z,61118.50
2024-01-15T03:10:32.156Z,61148.53
2024-01-15T03:13:20.657Z,61145.31
2024-01-15T03:16:15.158Z,61151.38
2024-01-15T03:18:55.203Z,61158.78
2024-01-15T03:21:47.869Z,61138.72
2024-01-15T03:24:44.012Z,61137.63
2024-01-15T03:27:30.362Z,61166.72
2024-01-15T03:30:16.915Z,61141.91
2024-01-15T03:33:10.955Z,61169.38
2024-01-15T03:35:59.593Z,61139.84
2024-01-15T03:38:59.120Z,61166.25
2024-01-15T03:41:53.652Z,61141.47
2024-01-15T03:44:36.343Z,61165.72
2024-01-15T03:47:26.225Z,61163.03
2024-01-15T03:49:56.346Z,61161.44
2024-01-15T03:52:26.646Z,61165.19
2024-01-15T03:54:57.039Z,61162.44
2024-01-15T03:57:27.325Z,61135.59
2024-01-15T03:59:58.304Z,61147.03
2024-01-15T04:02:29.650Z,61132.28
2024-01-15T04:05:01.436Z,61167.78
2024-01-15T04:07:58.666Z,61137.72
2024-01-15T04:10:50.420Z,61136.13
2024-01-15T04:13:42.931Z,61166.78
2024-01-15T04:16:39.628Z,61168.41
2024-01-15T04:19:26.009Z,61168.84
2024-01-15T04:22:22.200Z,61173.75
2024-01-15T04:25:12.572Z,61176.34
2024-01-15T04:27:59.003Z,61155.34
2024-01-15T04:30:44.726Z,61180.16
2024-01-15T04:33:36.607Z,61179.09
2024-01-15T04:36:29.931Z,61188.53
2024-01-15T04:39:25.208Z,61155.34
2024-01-15T04:42:23.398Z,61158.03
2024-01-15T04:45:14.499Z,61180.06
2024-01-15T04:48:06.440Z,61176.84
2024-01-15T04:50:55.964Z,61170.53
2024-01-15T04:53:39.262Z,61143.59
2024-01-15T04:56:30.155Z,61144.13
2024-01-15T04:59:23.004Z,61163.03
2024-01-15T05:02:14.763Z,61133.97
2024-01-15T05:05:13.786Z,61146.94
2024-01-15T05:08:08.758Z,61139.00
2024-01-15T05:11:00.767Z,61136.31
2024-01-15T05:13:56.012Z,61148.53
2024-01-15T05:16:51.418Z,61143.28
2024-01-15T05:19:52.008Z,61139.44
2024-01-15T05:22:35.862Z,61134.63
2024-01-15T05:25:11.744Z,61113.59
2024-01-15T05:28:05.123Z,61106.19
2024-01-15T05:30:59.738Z,61118.94
2024-01-15T05:33:54.550Z,61138.47
2024-01-15T05:36:45.323Z,61145.41
2024-01-15T05:39:33.101Z,61143.78
2024-01-15T05:42:26.377Z,61147.47
2024-01-15T05:45:12.292Z,61142.22
2024-01-15T05:48:01.260Z,61136.84
2024-01-15T05:50:33.609Z,61139.44
2024-01-15T05:53:02.196Z,61143.72
2024-01-15T05:55:31.036Z,61099.88
2024-01-15T05:58:02.007Z,61114.22
2024-01-15T06:00:35.033Z,61142.22
2024-01-15T06:03:07.576Z,61138.47
2024-01-15T06:05:38.894Z,61139.53
2024-01-15T06:08:30.075Z,61146.81
2024-01-15T06:11:05.559Z,61113.06
2024-01-15T06:13:35.130Z,61142.22
2024-01-15T06:16:08.245Z,61147.03
2024-01-15T06:18:40.466Z,61153.88
2024-01-15T06:21:23.816Z,61157.09
2024-01-15T06:24:14.703Z,61124.38
2024-01-15T06:27:12.131Z,61119.03
2024-01-15T06:30:04.580Z,61123.38
2024-01-15T06:32:50.203Z,61150.22
2024-01-15T06:35:56.093Z,61114.22
2024-01-15T06:38:51.522Z,61141.56
2024-01-15T06:41:36.789Z,61113.13
2024-01-15T06:44:23.443Z,61133.13
2024-01-15T06:47:13.507Z,61113.22
2024-01-15T06:50:03.478Z,61141.66
2024-01-15T06:53:00.932Z,61145.41
2024-01-15T06:55:57.224Z,61126.50
2024-01-15T06:58:39.706Z,61131.22
2024-01-15T07:01:11.769Z,61153.34
2024-01-15T07:03:40.367Z,61156.00
2024-01-15T07:06:08.854Z,61131.22
2024-01-15T07:08:38.555Z,61147.53
2024-01-15T07:11:08.763Z,61152.44
2024-01-15T07:13:57.953Z,61133.44
2024-01-15T07:16:39.826Z,61165.63
2024-01-15T07:19:28.333Z,61139.84
2024-01-15T07:22:25.561Z,61164.72
2024-01-15T07:25:23.614Z,61171.06
2024-01-15T07:28:16.202Z,61145.75
2024-01-15T07:31:09.386Z,61173.28
2024-01-15T07:34:07.823Z,61181.22
2024-01-15T07:36:53.814Z,61187.09
2024-01-15T07:39:46.341Z,61166.47
2024-01-15T07:42:44.779Z,61176.09
2024-01-15T07:45:43.742Z,61206.78
2024-01-15T07:48:37.712Z,61181.56
2024-01-15T07:51:29.308Z,61209.56
2024-01-15T07:54:27.313Z,61212.16
2024-01-15T07:57:26.803Z,61213.31
2024-01-15T08:00:17.139Z,61187.94
2024-01-15T08:03:10.513Z,61218.13
2024-01-15T08:06:03.859Z,61188.50
2024-01-15T08:08:54.171Z,61222.94
2024-01-15T08:11:39.100Z,61202.38
2024-01-15T08:14:24.187Z,61227.75
2024-01-15T08:17:23.805Z,61224.53
2024-01-15T08:20:09.755Z,61224.53
2024-01-15T08:23:03.629Z,61197.56
2024-01-15T08:26:03.669Z,61225.59
2024-01-15T08:29:02.842Z,61235.06
2024-01-15T08:32:02.019Z,61227.22
2024-01-15T08:34:37.526Z,61232.47
2024-01-15T08:37:31.129Z,61212.00
2024-01-15T08:40:15.266Z,61215.75
2024-01-15T08:43:03.152Z,61208.81
2024-01-15T08:45:55.277Z,61232.56
2024-01-15T08:48:46.124Z,61237.91
2024-01-15T08:51:43.173Z,61241.56
2024-01-15T08:54:25.329Z,61235.78
2024-01-15T08:57:16.846Z,61217.81
2024-01-15T09:00:04.706Z,61238.81
2024-01-15T09:03:01.443Z,61233.63
2024-01-15T09:05:46.960Z,61240.03
2024-01-15T09:08:41.144Z,61234.25
2024-01-15T09:11:43.302Z,61237.91
2024-01-15T09:14:33.598Z,61247.38
2024-01-15T09:17:28.795Z,61241.56
2024-01-15T09:20:11.759Z,61213.09
2024-01-15T09:22:59.168Z,61213.09
2024-01-15T09:25:47.834Z,61264.69
2024-01-15T09:28:36.480Z,61274.84
2024-01-15T09:31:24.605Z,61284.91
2024-01-15T09:34:15.645Z,61270.88
2024-01-15T09:37:07.493Z,61297.41
2024-01-15T09:39:57.704Z,61304.34
2024-01-15T09:42:45.126Z,61309.69
2024-01-15T09:45:36.504Z,61320.25
2024-01-15T09:48:27.370Z,61326.13
2024-01-15T09:51:16.280Z,61319.91
2024-01-15T09:54:09.570Z,61303.06
2024-01-15T09:57:03.390Z,61328.38
2024-01-15T09:59:44.676Z,61334.34
2024-01-15T10:02:34.201Z,61306.81
2024-01-15T10:05:20.697Z,61336.94
2024-01-15T10:08:11.848Z,61333.72
2024-01-15T10:11:06.497Z,61300.81
2024-01-15T10:13:57.756Z,61339.69
2024-01-15T10:16:53.946Z,61320.00
2024-01-15T10:19:50.448Z,61321.19
2024-01-15T10:22:44.235Z,61348.09
2024-01-15T10:25:31.966Z,61345.50
2024-01-15T10:28:24.767Z,61359.88
2024-01-15T10:31:18.992Z,61345.72
2024-01-15T10:34:09.236Z,61364.25
2024-01-15T10:37:03.705Z,61377.56
2024-01-15T10:39:59.309Z,61376.66
2024-01-15T10:42:56.893Z,61346.88
2024-01-15T10:45:53.059Z,61369.00
2024-01-15T10:48:46.138Z,61332.44
2024-01-15T10:51:38.666Z,61361.56
2024-01-15T10:54:33.702Z,61362.72
2024-01-15T10:57:21.164Z,61338.84
2024-01-15T11:00:14.326Z,61356.75
2024-01-15T11:03:05.604Z,61355.66
2024-01-15T11:05:56.474Z,61366.84
2024-01-15T11:08:45.150Z,61358.25
2024-01-15T11:11:29.340Z,61331.88
2024-01-15T11:13:59.456Z,61358.25
2024-01-15T11:17:23.156Z,61349.88
2024-01-15T11:20:15.256Z,61351.31
2024-01-15T11:23:13.657Z,61328.66
2024-01-15T11:26:16.749Z,61322.78
2024-01-15T11:29:12.344Z,61348.19
2024-01-15T11:32:12.705Z,61343.91
2024-01-15T11:35:17.415Z,61347.56
2024-01-15T11:38:26.048Z,61350.84
2024-01-15T11:41:32.683Z,61322.25
2024-01-15T11:44:23.025Z,61346.66
2024-01-15T11:47:23.637Z,61355.06
2024-01-15T11:50:32.742Z,61350.41
2024-01-15T11:53:33.960Z,61359.44
2024-01-15T11:56:34.921Z,61366.75
2024-01-15T11:59:25.182Z,61363.72
2024-01-15T12:02:16.039Z,61369.06
2024-01-15T12:04:44.265Z,61342.50
2024-01-15T12:07:37.445Z,61368.53
2024-01-15T12:10:32.923Z,61365.31
2024-01-15T12:13:32.268Z,61385.59
2024-01-15T12:16:30.329Z,61360.78
2024-01-15T12:19:20.673Z,61361.34
2024-01-15T12:22:09.068Z,61369.28
2024-01-15T12:25:03.449Z,61394.16
2024-01-15T12:27:49.096Z,61404.34
2024-01-15T12:30:47.210Z,61368.38
2024-01-15T12:33:47.650Z,61371.59
2024-01-15T12:36:46.431Z,61392.66
2024-01-15T12:39:40.781Z,61373.66
2024-01-15T12:42:36.047Z,61399.69
2024-01-15T12:45:30.788Z,61372.56
2024-01-15T12:48:23.495Z,61404.53
2024-01-15T12:51:19.052Z,61407.03
2024-01-15T12:54:14.558Z,61376.34
2024-01-15T12:57:01.709Z,61390.94
2024-01-15T12:59:46.298Z,61387.91
2024-01-15T13:02:33.327Z,61366.69
2024-01-15T13:05:28.720Z,61391.13
2024-01-15T13:08:13.464Z,61379.31
2024-01-15T13:11:08.119Z,61385.69
2024-01-15T13:14:03.423Z,61383.00
2024-01-15T13:17:01.586Z,61387.91
2024-01-15T13:19:39.256Z,61391.66
2024-01-15T13:22:36.581Z,61391.13
2024-01-15T13:25:25.539Z,61376.13
2024-01-15T13:28:20.149Z,61382.38
2024-01-15T13:31:21.854Z,61363.38
2024-01-15T13:34:19.048Z,61351.16
2024-01-15T13:37:11.229Z,61370.59
2024-01-15T13:40:04.390Z,61376.03
2024-01-15T13:42:51.838Z,61382.47
2024-01-15T13:45:46.195Z,61354.91
2024-01-15T13:48:31.888Z,61371.75
2024-01-15T13:51:15.212Z,61370.69
2024-01-15T13:54:02.808Z,61368.47
2024-01-15T13:56:55.291Z,61369.59
2024-01-15T13:59:49.965Z,61371.13
2024-01-15T14:02:21.712Z,61364.25
2024-01-15T14:04:53.140Z,61329.28
2024-01-15T14:07:24.504Z,61348.25
2024-01-15T14:09:53.606Z,61349.34
2024-01-15T14:12:37.015Z,61347.19
2024-01-15T14:15:08.686Z,61356.03
2024-01-15T14:17:39.287Z,61365.78
2024-01-15T14:20:36.605Z,61329.72
2024-01-15T14:23:15.644Z,61355.59
2024-01-15T14:25:48.440Z,61348.19
2024-01-15T14:28:19.527Z,61350.94
2024-01-15T14:31:03.113Z,61352.38
2024-01-15T14:33:40.292Z,61347.19
2024-01-15T14:36:23.035Z,61290.75
2024-01-15T14:39:06.611Z,61325.47
2024-01-15T14:41:58.312Z,61330.59
2024-01-15T14:44:53.733Z,61339.63
2024-01-15T14:47:38.984Z,61308.34
2024-01-15T14:50:25.543Z,61333.81
2024-01-15T14:53:18.967Z,61308.88
2024-01-15T14:56:25.546Z,61308.94
2024-01-15T14:59:15.928Z,61335.94
2024-01-15T15:02:12.449Z,61331.56
2024-01-15T15:05:07.095Z,61327.31
2024-01-15T15:07:55.600Z,61314.75
2024-01-15T15:10:39.607Z,61332.75
2024-01-15T15:13:38.168Z,61308.88
2024-01-15T15:16:46.041Z,61332.56
2024-01-15T15:19:34.978Z,61333.09
2024-01-15T15:22:26.206Z,61320.88
2024-01-15T15:25:22.448Z,61320.34
2024-01-15T15:28:23.259Z,61320.78
2024-01-15T15:31:17.646Z,61321.94
2024-01-15T15:34:17.964Z,61322.47
2024-01-15T15:37:14.569Z,61323.53
2024-01-15T15:40:11.661Z,61288.53
2024-01-15T15:43:06.660Z,61292.81
2024-01-15T15:45:56.389Z,61295.47
2024-01-15T15:48:47.253Z,61325.16
2024-01-15T15:51:36.469Z,61326.22
2024-01-15T15:54:29.126Z,61293.97
2024-01-15T15:57:16.076Z,61321.41
2024-01-15T16:00:03.169Z,61316.13
2024-01-15T16:02:49.062Z,61286.94
2024-01-15T16:05:45.766Z,61310.78
2024-01-15T16:08:44.233Z,61287.47
2024-01-15T16:11:54.372Z,61316.50
2024-01-15T16:14:45.885Z,61286.94
2024-01-15T16:23:16.204Z,61282.63
2024-01-15T16:23:32.892Z,61279.44
2024-01-15T16:24:13.388Z,61283.09
2024-01-15T16:29:56.300Z,61288.75
2024-01-15T16:32:32.432Z,61262.94
2024-01-15T16:35:26.462Z,61298.31
2024-01-15T16:38:12.796Z,61275.16
2024-01-15T16:41:02.188Z,61262.28
2024-01-15T16:43:50.806Z,61287.16
2024-01-15T16:46:33.959Z,61252.66
2024-01-15T16:49:25.721Z,61271.09
2024-01-15T16:52:20.715Z,61270.91
2024-01-15T16:55:14.245Z,61270.03
2024-01-15T16:57:43.130Z,61269.50
2024-01-15T17:00:40.074Z,61243.50
2024-01-15T17:03:11.043Z,61259.84
2024-01-15T17:06:02.940Z,61259.31
2024-01-15T17:08:48.623Z,61258.88
2024-01-15T17:11:44.620Z,61263.44
2024-01-15T17:14:31.798Z,61231.81
2024-01-15T17:17:27.200Z,61258.69
2024-01-15T17:20:15.105Z,61260.84
2024-01-15T17:23:07.061Z,61254.94
2024-01-15T17:25:40.112Z,61247.44
2024-01-15T17:31:46.712Z,61250.75
2024-01-15T17:34:46.654Z,61247.00
2024-01-15T17:37:35.065Z,61246.91
2024-01-15T17:40:28.629Z,61222.09
2024-01-15T17:43:17.323Z,61233.00
2024-01-15T17:46:08.081Z,61227.75
2024-01-15T17:48:49.649Z,61198.13
2024-01-15T17:51:45.166Z,61189.56
2024-01-15T17:54:32.051Z,61181.56
2024-01-15T17:57:16.730Z,61207.25
2024-01-15T18:00:04.883Z,61171.94
2024-01-15T18:02:52.357Z,61166.03
2024-01-15T18:05:44.624Z,61156.97
2024-01-15T18:08:33.551Z,61166.59
2024-01-15T18:11:16.928Z,61174.59
2024-01-15T18:14:12.855Z,61217.59
2024-01-15T18:17:09.007Z,61218.66
2024-01-15T18:20:03.788Z,61184.84
2024-01-15T18:22:51.467Z,61214.84
2024-01-15T18:25:55.999Z,61191.09
2024-01-15T18:28:39.088Z,61216.44
2024-01-15T18:31:37.103Z,61186.81
2024-01-15T18:34:26.083Z,61215.97
2024-01-15T18:37:17.586Z,61206.91
2024-01-15T18:40:06.166Z,61215.97
2024-01-15T18:42:57.996Z,61179.41
2024-01-15T18:45:49.445Z,61204.22
2024-01-15T18:48:21.417Z,61200.47
2024-01-15T18:51:02.900Z,61161.22
2024-01-15T18:53:54.323Z,61198.34
2024-01-15T18:56:45.753Z,61193.59
2024-01-15T18:59:46.941Z,61168.19
2024-01-15T19:02:17.363Z,61153.84
2024-01-15T19:05:15.646Z,61181.13
2024-01-15T19:07:57.128Z,61178.03
2024-01-15T19:10:48.834Z,61171.53
2024-01-15T19:13:44.044Z,61159.56
2024-01-15T19:16:45.458Z,61158.03
2024-01-15T19:19:38.374Z,61178.03
2024-01-15T19:22:37.145Z,61168.41
2024-01-15T19:25:35.893Z,61159.84
2024-01-15T19:28:32.297Z,61160.81
2024-01-15T19:31:26.272Z,61153.97
2024-01-15T19:34:26.325Z,61116.88
2024-01-15T19:37:21.713Z,61126.41
2024-01-15T19:40:16.501Z,61147.03
2024-01-15T19:43:09.139Z,61115.28
2024-01-15T19:45:54.170Z,61126.16
2024-01-15T19:48:47.844Z,61094.91
2024-01-15T19:51:46.224Z,61103.19
2024-01-15T19:54:40.790Z,61058.69
2024-01-15T19:57:26.421Z,61052.72
2024-01-15T20:00:18.548Z,61079.59
2024-01-15T20:03:13.310Z,61035.09
2024-01-15T20:06:06.511Z,61060.38
2024-01-15T20:09:00.523Z,61050.88
2024-01-15T20:11:56.459Z,61055.03
2024-01-15T20:14:53.574Z,61033.50
2024-01-15T20:17:46.177Z,61043.63
2024-01-15T20:20:36.777Z,61076.41
2024-01-15T20:23:36.825Z,61053.88
2024-01-15T20:26:32.507Z,61030.28
2024-01-15T20:29:26.549Z,61059.31
2024-01-15T20:32:18.827Z,61048.72
2024-01-15T20:35:11.630Z,61033.13
2024-01-15T20:38:05.496Z,61035.38
2024-01-15T20:40:56.115Z,61031.63
2024-01-15T20:43:52.316Z,61030.03
2024-01-15T20:46:48.169Z,61056.19
2024-01-15T20:49:36.720Z,61060.91
2024-01-15T20:52:25.668Z,61058.78
2024-01-15T20:55:17.226Z,61055.03
2024-01-15T20:58:13.407Z,61053.44
2024-01-15T21:01:12.766Z,61052.38
2024-01-15T21:03:56.458Z,61049.78
2024-01-15T21:06:46.636Z,61031.34
2024-01-15T21:09:28.819Z,61034.22
2024-01-15T21:12:26.705Z,60986.63
2024-01-15T21:15:16.355Z,60958.78
2024-01-15T21:17:56.835Z,60993.66
2024-01-15T21:20:42.466Z,60981.91
2024-01-15T21:23:23.362Z,60962.25
2024-01-15T21:26:20.162Z,60933.19
2024-01-15T21:29:15.184Z,60985.09
2024-01-15T21:32:06.382Z,61000.69
2024-01-15T21:35:01.733Z,60983.41
2024-01-15T21:37:49.889Z,61011.78
2024-01-15T21:40:42.045Z,60997.47
2024-01-15T21:43:36.788Z,60965.28
2024-01-15T21:46:25.747Z,60994.78
2024-01-15T21:49:16.592Z,60958.34
2024-01-15T21:52:19.131Z,60949.88
2024-01-15T21:55:13.392Z,60970.25
2024-01-15T21:58:15.717Z,60978.16
2024-01-15T22:01:00.474Z,60940.66
2024-01-15T22:03:56.958Z,60930.00
2024-01-15T22:06:42.769Z,60945.19
2024-01-15T22:09:49.916Z,60955.84
2024-01-15T22:12:18.423Z,60936.47
2024-01-15T22:15:06.729Z,60939.31
2024-01-15T22:17:56.855Z,60924.91
2024-01-15T22:20:46.302Z,60922.78
2024-01-15T22:23:39.373Z,60892.75
2024-01-15T22:26:39.062Z,60931.75
2024-01-15T22:29:23.771Z,60925.97
2024-01-15T22:32:07.181Z,60895.31
2024-01-15T22:35:04.987Z,60918.88
2024-01-15T22:38:00.462Z,60883.59
2024-01-15T22:40:56.697Z,60885.81
2024-01-15T22:43:53.469Z,60906.78
2024-01-15T22:46:40.880Z,60894.97
2024-01-15T22:49:32.920Z,60868.78
2024-01-15T22:52:24.065Z,60896.56
2024-01-15T22:55:24.459Z,60873.66
2024-01-15T22:58:20.509Z,60865.66
2024-01-15T23:01:15.278Z,60865.47
2024-01-15T23:04:01.254Z,60865.75
2024-01-15T23:06:38.778Z,60857.22
2024-01-15T23:09:35.404Z,60870.44
2024-01-15T23:12:05.277Z,60856.44
2024-01-15T23:15:00.006Z,60856.53
2024-01-15T23:17:51.687Z,60883.88
2024-01-15T23:20:47.813Z,60842.66
2024-01-15T23:23:42.202Z,60832.47
2024-01-15T23:26:25.878Z,60851.88
2024-01-15T23:29:28.926Z,60855.53
2024-01-15T23:32:20.863Z,60850.13
2024-01-15T23:35:16.071Z,60831.13
2024-01-15T23:38:14.666Z,60849.13
2024-01-15T23:41:06.779Z,60845.50
2024-01-15T23:43:55.200Z,60805.84
2024-01-15T23:46:40.829Z,60822.59
2024-01-15T23:49:35.899Z,60826.84
2024-01-15T23:52:25.002Z,60802.19
2024-01-15T23:55:16.306Z,60826.31
2024-01-15T23:58:02.423Z,60843.81
